Time;durP1;ratioP1;P1;durP2;ratioP2;P2;SDS_P1;SDS_P2;PMS_P1;PMS_P2;Temp;Humidity;BMP_temperature;BMP_pressure;BME280_temperature;BME280_humidity;BME280_pressure;Samples;Min_cycle;Max_cycle;Signal;HPM_P1;HPM_P2
2023/01/18 00:00:47;;;;;;;1.63;1.25;;;14.20;50.30;;;;;;5086359;27;45205;-73
2023/01/18 00:03:14;;;;;;;0.90;0.90;;;14.20;50.30;;;;;;5086392;27;44718;-73
2023/01/18 00:05:42;;;;;;;1.13;1.10;;;14.20;50.30;;;;;;5083914;27;45334;-73
2023/01/18 00:08:09;;;;;;;1.10;1.00;;;14.20;50.40;;;;;;5086656;27;45312;-73
2023/01/18 00:10:36;;;;;;;0.93;0.93;;;14.20;50.40;;;;;;5086230;27;45280;-73
2023/01/18 00:13:03;;;;;;;1.20;1.10;;;14.20;50.50;;;;;;5085467;27;45372;-73
2023/01/18 00:15:30;;;;;;;0.93;0.80;;;14.10;50.40;;;;;;5086418;27;45263;-73
2023/01/18 00:17:57;;;;;;;0.73;0.73;;;14.10;50.40;;;;;;5086580;27;45295;-73
2023/01/18 00:20:25;;;;;;;1.20;1.02;;;14.10;50.50;;;;;;5085984;27;46394;-73
2023/01/18 00:22:53;;;;;;;1.35;1.15;;;14.10;50.40;;;;;;5085795;27;45209;-73
2023/01/18 00:25:21;;;;;;;1.10;1.00;;;14.10;50.40;;;;;;5089812;27;45329;-73
2023/01/18 00:27:49;;;;;;;1.10;1.00;;;14.10;50.40;;;;;;5089933;27;45461;-73
2023/01/18 00:30:17;;;;;;;1.20;0.85;;;14.10;50.40;;;;;;5089497;27;45464;-73
2023/01/18 00:32:44;;;;;;;0.85;0.85;;;14.10;50.40;;;;;;5089522;27;45283;-73
2023/01/18 00:35:11;;;;;;;1.23;1.05;;;14.10;50.50;;;;;;5089666;27;45295;-73
2023/01/18 00:37:38;;;;;;;0.70;0.70;;;14.10;50.50;;;;;;5090004;27;45391;-73
2023/01/18 00:40:08;;;;;;;1.00;0.90;;;14.10;50.50;;;;;;5089324;27;46359;-73
2023/01/18 00:45:19;;;;;;;0.90;0.90;;;14.10;50.50;;;;;;5087019;28;45251;-73
2023/01/18 00:47:46;;;;;;;1.13;0.80;;;14.10;50.50;;;;;;5089626;27;45459;-73
2023/01/18 00:50:13;;;;;;;1.02;1.00;;;14.10;50.50;;;;;;5089000;27;45192;-73
2023/01/18 00:52:45;;;;;;;1.00;0.90;;;14.10;51.10;;;;;;5089226;27;45206;-73
2023/01/18 00:55:13;;;;;;;0.93;0.93;;;14.10;50.50;;;;;;5089292;27;45309;-73
2023/01/18 00:57:40;;;;;;;0.93;0.93;;;14.00;50.50;;;;;;5089469;27;45135;-73
2023/01/18 01:00:10;;;;;;;0.82;0.82;;;14.00;50.50;;;;;;5088924;27;45227;-73
2023/01/18 01:02:39;;;;;;;0.95;0.90;;;14.00;50.50;;;;;;5089028;27;45321;-73
2023/01/18 01:07:51;;;;;;;1.27;1.00;;;14.00;50.50;;;;;;5089603;28;45218;-72
2023/01/18 01:10:19;;;;;;;1.30;1.20;;;14.00;50.50;;;;;;5088111;27;45182;-73
2023/01/18 01:26:28;;;;;;;1.10;0.95;;;14.00;50.60;;;;;;5089097;28;45214;-73
2023/01/18 01:28:55;;;;;;;1.17;1.08;;;14.00;50.70;;;;;;5088804;27;45373;-73
2023/01/18 01:31:21;;;;;;;1.17;1.08;;;14.00;50.60;;;;;;5088562;27;45284;-73
2023/01/18 01:33:48;;;;;;;1.23;0.90;;;13.90;50.70;;;;;;5088465;27;45153;-73
2023/01/18 01:36:16;;;;;;;1.25;1.15;;;13.90;50.70;;;;;;5087950;27;45233;-73
2023/01/18 01:38:43;;;;;;;1.00;1.00;;;13.90;50.70;;;;;;5088946;27;45276;-72
2023/01/18 01:41:14;;;;;;;0.90;0.90;;;13.90;50.70;;;;;;5088467;27;47314;-73
2023/01/18 01:43:44;;;;;;;1.00;0.90;;;13.90;50.70;;;;;;5088443;27;45166;-73
2023/01/18 01:46:35;;;;;;;1.65;1.08;;;13.90;50.70;;;;;;5088719;27;45249;-73
2023/01/18 01:49:04;;;;;;;1.00;1.00;;;13.90;50.70;;;;;;5078170;27;45531;-73
2023/01/18 01:51:31;;;;;;;0.98;0.98;;;13.90;50.60;;;;;;5088126;27;46753;-73
2023/01/18 01:53:59;;;;;;;0.90;0.90;;;13.90;50.70;;;;;;5088274;27;45161;-73
2023/01/18 01:56:25;;;;;;;0.95;0.95;;;13.90;51.20;;;;;;5088676;27;45212;-73
2023/01/18 01:58:55;;;;;;;0.98;0.98;;;13.90;50.70;;;;;;5088432;27;45194;-73
2023/01/18 02:01:22;;;;;;;1.17;1.08;;;13.90;50.70;;;;;;5088056;27;47318;-73
2023/01/18 02:03:48;;;;;;;0.98;0.98;;;13.90;50.70;;;;;;5088141;27;45154;-73
2023/01/18 02:06:23;;;;;;;0.90;0.90;;;13.90;50.70;;;;;;5088246;27;45137;-73
2023/01/18 02:08:50;;;;;;;1.20;1.10;;;13.80;50.60;;;;;;5088268;27;45206;-73
2023/01/18 02:11:16;;;;;;;1.00;1.00;;;13.80;50.60;;;;;;5087905;27;46659;-73
2023/01/18 02:13:43;;;;;;;1.13;1.02;;;13.80;50.60;;;;;;5087866;27;45255;-73
2023/01/18 02:16:16;;;;;;;1.02;1.02;;;13.80;51.20;;;;;;5088021;27;45312;-73
2023/01/18 02:18:45;;;;;;;1.20;1.10;;;13.80;50.60;;;;;;5088098;27;45278;-73
2023/01/18 02:21:15;;;;;;;1.17;1.10;;;13.80;50.60;;;;;;5087653;27;45413;-73
2023/01/18 02:24:17;;;;;;;1.10;1.00;;;13.80;50.60;;;;;;5087476;27;45149;-73
2023/01/18 02:26:59;;;;;;;1.00;1.00;;;13.80;50.60;;;;;;5085236;27;45205;-73
2023/01/18 02:29:39;;;;;;;1.05;1.05;;;13.80;50.60;;;;;;5087927;27;45418;-73
2023/01/18 02:32:12;;;;;;;1.13;1.05;;;13.80;50.60;;;;;;5087570;27;46663;-73
2023/01/18 02:34:42;;;;;;;1.20;1.10;;;13.80;50.60;;;;;;5087631;27;45212;-73
2023/01/18 02:37:12;;;;;;;1.40;1.30;;;13.80;50.60;;;;;;5087783;27;45384;-73
2023/01/18 02:39:43;;;;;;;1.02;1.02;;;13.80;50.60;;;;;;5087893;27;45126;-73
2023/01/18 02:47:46;;;;;;;1.08;1.08;;;13.80;50.60;;;;;;5084870;28;45220;-73
2023/01/18 02:50:21;;;;;;;1.02;1.02;;;13.80;50.60;;;;;;5087688;27;45318;-73
2023/01/18 02:52:50;;;;;;;1.17;1.13;;;13.70;50.60;;;;;;5087341;27;45190;-73
2023/01/18 02:55:21;;;;;;;1.50;1.40;;;13.70;50.60;;;;;;5087277;27;45311;-73
2023/01/18 02:57:48;;;;;;;1.33;1.23;;;13.70;50.60;;;;;;5087362;27;45153;-73
2023/01/18 03:00:17;;;;;;;1.00;1.00;;;13.70;50.60;;;;;;5087500;27;45313;-73
2023/01/18 03:02:44;;;;;;;1.58;1.05;;;13.70;50.60;;;;;;5087074;27;45520;-73
2023/01/18 03:05:11;;;;;;;1.10;1.10;;;13.70;50.60;;;;;;5087132;27;45134;-73
2023/01/18 03:07:41;;;;;;;1.35;1.25;;;13.70;50.60;;;;;;5087594;27;45202;-73
2023/01/18 03:10:09;;;;;;;1.25;1.15;;;13.70;50.60;;;;;;5087356;27;45230;-72
2023/01/18 03:12:45;;;;;;;1.10;1.10;;;13.70;50.60;;;;;;5086367;27;46677;-72
2023/01/18 03:15:14;;;;;;;1.30;1.20;;;13.70;50.60;;;;;;5086930;27;45225;-72
2023/01/18 03:17:43;;;;;;;1.00;1.00;;;13.70;50.60;;;;;;5086455;27;45244;-73
2023/01/18 03:20:12;;;;;;;1.60;1.30;;;13.70;50.60;;;;;;5087213;27;45098;-73
2023/01/18 03:25:26;;;;;;;1.00;1.00;;;13.70;50.60;;;;;;5084021;28;45204;-73
2023/01/18 03:33:41;;;;;;;1.02;1.02;;;13.60;50.50;;;;;;5083468;28;45820;-73
2023/01/18 03:36:09;;;;;;;0.88;0.88;;;13.60;50.60;;;;;;5086721;27;45259;-73
2023/01/18 03:38:36;;;;;;;1.80;1.30;;;13.60;50.60;;;;;;5086644;27;45121;-73
2023/01/18 03:41:03;;;;;;;1.00;1.00;;;13.60;50.60;;;;;;5086313;27;45434;-73
2023/01/18 03:43:35;;;;;;;0.80;0.80;;;13.60;50.60;;;;;;5086676;27;45509;-74
2023/01/18 03:46:02;;;;;;;1.35;1.25;;;13.60;50.60;;;;;;5086850;27;45270;-74
2023/01/18 03:48:30;;;;;;;1.20;1.10;;;13.60;50.60;;;;;;5086770;27;45246;-74
2023/01/18 03:50:59;;;;;;;1.40;1.05;;;13.60;50.60;;;;;;5086727;27;45489;-74
2023/01/18 03:53:28;;;;;;;1.05;1.00;;;13.60;50.60;;;;;;5086558;27;45640;-74
2023/01/18 03:55:57;;;;;;;1.02;1.00;;;13.60;50.60;;;;;;5086684;27;45330;-74
2023/01/18 03:58:26;;;;;;;0.93;0.90;;;13.60;50.60;;;;;;5090095;27;45248;-74
2023/01/18 04:00:52;;;;;;;1.00;1.00;;;13.60;50.60;;;;;;5090388;27;45393;-74
2023/01/18 04:03:19;;;;;;;1.13;1.02;;;13.60;50.60;;;;;;5087409;27;45330;-74
2023/01/18 04:05:47;;;;;;;0.80;0.80;;;13.60;50.60;;;;;;5089962;27;45271;-74
2023/01/18 04:08:15;;;;;;;0.90;0.90;;;13.60;50.60;;;;;;5090170;27;45192;-74
2023/01/18 04:10:42;;;;;;;0.80;0.80;;;13.60;50.60;;;;;;5090078;27;45566;-74
2023/01/18 04:13:09;;;;;;;0.90;0.90;;;13.50;50.60;;;;;;5089814;27;45220;-74
2023/01/18 04:15:35;;;;;;;0.93;0.82;;;13.50;50.60;;;;;;5089818;27;45252;-74
2023/01/18 04:18:02;;;;;;;0.80;0.80;;;13.60;50.60;;;;;;5089874;27;45318;-74
2023/01/18 04:20:29;;;;;;;0.85;0.75;;;13.50;50.60;;;;;;5090083;27;45200;-74
2023/01/18 04:22:57;;;;;;;0.90;0.90;;;13.50;50.60;;;;;;5089539;27;46552;-74
2023/01/18 04:25:25;;;;;;;1.17;0.80;;;13.50;50.60;;;;;;5086754;27;45388;-74
2023/01/18 04:27:52;;;;;;;0.60;0.60;;;13.50;50.60;;;;;;5089218;27;45323;-74
2023/01/18 04:30:19;;;;;;;0.68;0.68;;;13.50;50.70;;;;;;5089758;27;45232;-74
2023/01/18 04:32:46;;;;;;;0.70;0.70;;;13.50;50.60;;;;;;5089491;27;46804;-74
2023/01/18 04:35:13;;;;;;;1.65;0.80;;;13.50;50.60;;;;;;5089688;27;45272;-74
2023/01/18 04:37:40;;;;;;;0.70;0.70;;;13.50;50.70;;;;;;5089864;27;45236;-74
2023/01/18 04:40:09;;;;;;;0.65;0.60;;;13.50;50.60;;;;;;5089703;27;45306;-74
2023/01/18 04:42:36;;;;;;;0.63;0.63;;;13.50;50.60;;;;;;5089354;27;45768;-74
2023/01/18 04:45:03;;;;;;;0.70;0.70;;;13.50;50.60;;;;;;5089293;27;45213;-74
2023/01/18 04:47:30;;;;;;;0.80;0.80;;;13.50;50.70;;;;;;5089583;27;45293;-74
2023/01/18 04:49:57;;;;;;;1.00;1.00;;;13.50;50.60;;;;;;5089597;27;45369;-74
2023/01/18 04:52:25;;;;;;;1.00;1.00;;;13.40;50.60;;;;;;5089326;27;47256;-74
2023/01/18 04:54:52;;;;;;;0.85;0.85;;;13.50;50.70;;;;;;5089212;27;45146;-74
2023/01/18 04:57:20;;;;;;;0.73;0.73;;;13.40;50.60;;;;;;5086673;27;45185;-74
2023/01/18 04:59:47;;;;;;;0.80;0.80;;;13.50;50.70;;;;;;5089351;27;45415;-74
2023/01/18 05:02:15;;;;;;;0.80;0.80;;;13.40;50.60;;;;;;5089063;27;45359;-74
2023/01/18 05:04:42;;;;;;;1.05;0.70;;;13.40;50.60;;;;;;5089145;27;45176;-74
2023/01/18 05:07:09;;;;;;;0.80;0.80;;;13.40;50.60;;;;;;5088979;27;45185;-74
2023/01/18 05:09:36;;;;;;;0.85;0.85;;;13.40;50.60;;;;;;5088483;27;45407;-74
2023/01/18 05:12:03;;;;;;;0.90;0.90;;;13.40;50.60;;;;;;5088321;27;45270;-74
2023/01/18 05:14:31;;;;;;;0.95;0.90;;;13.40;50.60;;;;;;5086248;27;45293;-74
2023/01/18 05:16:58;;;;;;;0.80;0.80;;;13.40;50.60;;;;;;5089022;27;45248;-72
2023/01/18 05:19:29;;;;;;;1.38;0.70;;;13.40;50.60;;;;;;5089102;27;45261;-74
2023/01/18 05:21:56;;;;;;;0.88;0.80;;;13.40;50.60;;;;;;5088634;27;46790;-74
2023/01/18 05:24:23;;;;;;;0.80;0.80;;;13.40;50.70;;;;;;5088510;27;45135;-74
2023/01/18 05:26:50;;;;;;;1.00;0.90;;;13.40;50.70;;;;;;5088896;27;45231;-74
2023/01/18 05:29:16;;;;;;;0.52;0.52;;;13.40;50.70;;;;;;5088967;27;45310;-74
2023/01/18 05:31:45;;;;;;;0.80;0.80;;;13.40;50.70;;;;;;5088456;27;45503;-74
2023/01/18 05:34:11;;;;;;;1.08;0.70;;;13.40;50.70;;;;;;5088631;27;45287;-74
2023/01/18 05:36:38;;;;;;;0.80;0.80;;;13.40;50.70;;;;;;5088595;27;45256;-74
2023/01/18 05:39:05;;;;;;;0.70;0.70;;;13.40;50.70;;;;;;5088957;27;45350;-74
2023/01/18 05:41:32;;;;;;;0.82;0.80;;;13.40;51.30;;;;;;5088445;27;46890;-74
2023/01/18 05:43:59;;;;;;;0.73;0.73;;;13.30;50.60;;;;;;5088638;27;45277;-74
2023/01/18 05:46:26;;;;;;;0.60;0.60;;;13.30;50.60;;;;;;5088666;27;45118;-73
2023/01/18 05:48:57;;;;;;;0.82;0.82;;;13.30;50.60;;;;;;5088710;27;45188;-73
2023/01/18 05:51:24;;;;;;;0.85;0.85;;;13.30;50.60;;;;;;5088187;27;47315;-74
2023/01/18 05:53:51;;;;;;;0.95;0.70;;;13.30;50.70;;;;;;5087630;27;45176;-74
2023/01/18 05:56:17;;;;;;;0.80;0.80;;;13.30;50.70;;;;;;5088837;27;45223;-74
2023/01/18 05:58:45;;;;;;;0.80;0.80;;;13.30;50.70;;;;;;5088514;27;45251;-74
2023/01/18 06:01:12;;;;;;;0.70;0.70;;;13.30;50.70;;;;;;5088177;27;45500;-74
2023/01/18 06:03:39;;;;;;;0.70;0.70;;;13.30;50.70;;;;;;5088134;27;45257;-74
2023/01/18 06:06:08;;;;;;;0.70;0.70;;;13.30;50.70;;;;;;5088476;27;45222;-74
2023/01/18 06:08:34;;;;;;;0.60;0.60;;;13.30;50.70;;;;;;5088524;27;45185;-74
2023/01/18 06:11:01;;;;;;;0.70;0.70;;;13.30;50.70;;;;;;5087946;27;46376;-73
2023/01/18 06:13:29;;;;;;;1.15;0.80;;;13.30;50.70;;;;;;5088048;27;45379;-73
2023/01/18 06:15:56;;;;;;;2.05;0.80;;;13.30;50.70;;;;;;5088117;27;45236;-74
2023/01/18 06:18:24;;;;;;;0.65;0.65;;;13.30;50.70;;;;;;5088375;27;45180;-74
2023/01/18 06:20:53;;;;;;;0.68;0.68;;;13.30;50.70;;;;;;5086847;27;46720;-73
2023/01/18 06:23:21;;;;;;;0.70;0.70;;;13.30;50.60;;;;;;5087899;27;45243;-74
2023/01/18 06:25:48;;;;;;;0.80;0.80;;;13.30;50.60;;;;;;5088091;27;45266;-74
2023/01/18 06:28:15;;;;;;;0.60;0.60;;;13.30;51.20;;;;;;5088165;27;45195;-73
2023/01/18 06:30:42;;;;;;;0.68;0.63;;;13.30;50.70;;;;;;5087693;27;45649;-73
2023/01/18 06:33:08;;;;;;;0.90;0.90;;;13.30;50.70;;;;;;5087681;27;45319;-73
2023/01/18 06:35:36;;;;;;;1.02;0.90;;;13.20;50.70;;;;;;5087867;27;45307;-74
2023/01/18 06:38:02;;;;;;;0.70;0.70;;;13.20;50.70;;;;;;5087586;27;45174;-74
2023/01/18 06:40:31;;;;;;;0.70;0.70;;;13.20;50.70;;;;;;5087315;27;46649;-74
2023/01/18 06:42:57;;;;;;;0.70;0.70;;;13.30;50.70;;;;;;5087612;27;45362;-74
2023/01/18 06:45:24;;;;;;;0.80;0.80;;;13.20;50.60;;;;;;5087967;27;45398;-74
2023/01/18 06:47:51;;;;;;;0.90;0.70;;;13.20;50.70;;;;;;5088045;27;45221;-74
2023/01/18 06:50:18;;;;;;;1.08;0.95;;;13.20;50.70;;;;;;5087657;28;46481;-74
2023/01/18 06:52:45;;;;;;;0.70;0.70;;;13.20;50.70;;;;;;5087413;27;46424;-74
2023/01/18 06:55:12;;;;;;;0.63;0.63;;;13.20;50.70;;;;;;5087857;27;45318;-74
2023/01/18 06:57:40;;;;;;;0.70;0.70;;;13.20;50.70;;;;;;5087714;27;45459;-74
2023/01/18 07:00:08;;;;;;;0.70;0.70;;;13.20;50.70;;;;;;5087324;27;45613;-74
2023/01/18 07:02:35;;;;;;;0.77;0.70;;;13.20;50.70;;;;;;5087436;27;45260;-74
2023/01/18 07:05:02;;;;;;;0.80;0.77;;;13.20;50.70;;;;;;5087516;27;45341;-73
2023/01/18 07:07:29;;;;;;;0.90;0.90;;;13.20;50.70;;;;;;5087580;27;45336;-74
2023/01/18 07:09:56;;;;;;;0.80;0.80;;;13.20;50.70;;;;;;5087075;27;45454;-74
2023/01/18 07:12:22;;;;;;;0.82;0.82;;;13.20;50.70;;;;;;5087183;27;45157;-74
2023/01/18 07:14:51;;;;;;;0.60;0.60;;;13.20;50.70;;;;;;5087579;27;45195;-74
2023/01/18 07:17:18;;;;;;;0.80;0.80;;;13.20;50.70;;;;;;5087580;27;45310;-74
2023/01/18 07:19:45;;;;;;;0.65;0.65;;;13.20;50.70;;;;;;5087013;27;45433;-73
2023/01/18 07:22:12;;;;;;;0.80;0.70;;;13.20;50.70;;;;;;5086233;27;45344;-74
2023/01/18 07:24:39;;;;;;;0.70;0.70;;;13.20;50.70;;;;;;5086832;27;45241;-74
2023/01/18 07:27:06;;;;;;;0.90;0.90;;;13.20;50.80;;;;;;5087411;27;45198;-74
2023/01/18 07:29:33;;;;;;;0.95;0.80;;;13.20;50.70;;;;;;5086994;27;45279;-74
2023/01/18 07:32:01;;;;;;;0.70;0.70;;;13.20;50.70;;;;;;5092141;27;45226;-74
2023/01/18 07:34:28;;;;;;;0.77;0.77;;;13.10;50.70;;;;;;5093858;27;45260;-74
2023/01/18 07:36:54;;;;;;;0.98;0.70;;;13.10;50.70;;;;;;5093993;27;45197;-74
2023/01/18 07:39:21;;;;;;;0.68;0.68;;;13.10;50.70;;;;;;5093837;27;46370;-74
2023/01/18 07:41:48;;;;;;;0.80;0.80;;;13.10;50.70;;;;;;5093683;27;45251;-73
2023/01/18 07:44:15;;;;;;;0.70;0.70;;;13.20;50.70;;;;;;5093911;27;45477;-74
2023/01/18 07:46:42;;;;;;;0.70;0.70;;;13.10;50.70;;;;;;5093963;27;45304;-74
2023/01/18 07:49:11;;;;;;;0.82;0.82;;;13.10;50.70;;;;;;5093634;27;45487;-74
2023/01/18 07:51:37;;;;;;;0.90;0.90;;;13.20;50.80;;;;;;5093426;27;45298;-74
2023/01/18 07:54:04;;;;;;;0.65;0.65;;;13.10;50.70;;;;;;5091116;27;45292;-74
2023/01/18 07:56:31;;;;;;;0.70;0.70;;;13.10;50.70;;;;;;5093693;27;45383;-73
2023/01/18 07:58:58;;;;;;;0.93;0.90;;;13.20;50.70;;;;;;5093478;27;45399;-73
2023/01/18 08:01:25;;;;;;;0.70;0.70;;;13.10;51.30;;;;;;5093518;27;45185;-73
2023/01/18 08:03:53;;;;;;;0.75;0.75;;;13.10;50.70;;;;;;5092912;27;45271;-73
2023/01/18 08:06:23;;;;;;;0.70;0.70;;;13.10;50.60;;;;;;5093168;27;45394;-73
2023/01/18 08:08:50;;;;;;;1.27;0.70;;;13.10;50.70;;;;;;5093013;27;46490;-73
2023/01/18 08:11:18;;;;;;;0.90;0.80;;;13.10;50.70;;;;;;5093382;27;45192;-73
2023/01/18 08:13:45;;;;;;;2.45;0.73;;;13.10;50.70;;;;;;5093263;27;45311;-74
2023/01/18 08:16:12;;;;;;;0.80;0.80;;;13.10;50.70;;;;;;5093508;27;45386;-74
2023/01/18 08:18:39;;;;;;;1.23;0.80;;;13.10;50.70;;;;;;5092980;27;46745;-74
2023/01/18 08:21:09;;;;;;;0.85;0.85;;;13.00;50.70;;;;;;5093383;27;45244;-74
2023/01/18 08:23:38;;;;;;;0.80;0.80;;;13.10;50.80;;;;;;5092980;27;45367;-74
2023/01/18 08:26:05;;;;;;;0.93;0.88;;;13.00;50.70;;;;;;5093372;27;45118;-73
2023/01/18 08:28:31;;;;;;;1.10;0.68;;;13.00;50.80;;;;;;5092977;27;45234;-74
2023/01/18 08:31:06;;;;;;;0.68;0.68;;;13.00;50.80;;;;;;5093004;27;45323;-74
2023/01/18 08:33:36;;;;;;;1.00;0.90;;;13.00;50.80;;;;;;5093317;27;45417;-73
2023/01/18 08:36:03;;;;;;;0.90;0.90;;;13.00;50.80;;;;;;5093274;27;45212;-74
2023/01/18 08:38:30;;;;;;;1.05;0.80;;;13.00;50.80;;;;;;5092840;27;46366;-74
2023/01/18 08:41:01;;;;;;;1.00;0.80;;;13.10;50.70;;;;;;5093002;27;45216;-74
2023/01/18 08:43:28;;;;;;;0.75;0.73;;;13.10;50.70;;;;;;5089600;27;45310;-73
2023/01/18 08:45:54;;;;;;;1.15;1.00;;;13.00;50.70;;;;;;5090019;27;45400;-73
2023/01/18 08:48:21;;;;;;;1.40;0.88;;;13.10;50.70;;;;;;5089555;27;45457;-74
2023/01/18 08:50:48;;;;;;;0.93;0.82;;;13.00;50.70;;;;;;5089477;27;45486;-73
2023/01/18 08:53:15;;;;;;;0.90;0.90;;;13.00;50.70;;;;;;5089033;27;45354;-73
2023/01/18 08:55:42;;;;;;;1.20;0.80;;;13.00;50.70;;;;;;5089469;27;45272;-73
2023/01/18 08:58:10;;;;;;;1.52;0.85;;;13.00;50.70;;;;;;5089268;27;46424;-73
2023/01/18 09:00:37;;;;;;;0.90;0.90;;;13.00;50.70;;;;;;5089531;27;45229;-73
2023/01/18 09:03:05;;;;;;;1.35;0.90;;;13.00;50.70;;;;;;5089351;27;45379;-73
2023/01/18 09:05:34;;;;;;;1.40;1.20;;;13.00;50.70;;;;;;5089327;27;45290;-73
2023/01/18 09:08:00;;;;;;;0.93;0.93;;;13.00;50.70;;;;;;5089116;27;45220;-73
2023/01/18 09:10:27;;;;;;;1.10;0.80;;;13.00;50.70;;;;;;5089176;27;45241;-73
2023/01/18 09:12:54;;;;;;;0.85;0.85;;;13.00;50.70;;;;;;5089383;27;45306;-73
2023/01/18 09:15:22;;;;;;;0.80;0.80;;;13.00;50.80;;;;;;5089308;27;45462;-73
2023/01/18 09:17:49;;;;;;;1.02;1.00;;;13.00;50.80;;;;;;5088880;27;45500;-73
2023/01/18 09:20:16;;;;;;;0.88;0.80;;;13.00;50.80;;;;;;5089096;27;45211;-73
2023/01/18 09:22:44;;;;;;;1.17;0.88;;;13.00;50.70;;;;;;5089088;27;45195;-73
2023/01/18 09:25:10;;;;;;;0.98;0.82;;;13.00;50.70;;;;;;5089516;27;45269;-73
2023/01/18 09:27:37;;;;;;;1.17;1.00;;;13.00;50.70;;;;;;5088902;27;45428;-73
2023/01/18 09:30:05;;;;;;;1.27;0.90;;;13.00;50.60;;;;;;5088886;27;45142;-73
2023/01/18 09:32:33;;;;;;;0.80;0.80;;;13.00;50.60;;;;;;5088940;27;45281;-73
2023/01/18 09:35:00;;;;;;;0.73;0.73;;;13.00;50.60;;;;;;5089213;27;45367;-73
2023/01/18 09:37:27;;;;;;;0.90;0.90;;;13.00;50.60;;;;;;5087885;27;48221;-73
2023/01/18 09:39:54;;;;;;;0.90;0.80;;;13.00;50.60;;;;;;5088857;27;45310;-73
2023/01/18 09:42:21;;;;;;;0.77;0.77;;;13.00;50.60;;;;;;5088652;27;45236;-73
2023/01/18 09:44:49;;;;;;;1.30;1.00;;;13.10;50.70;;;;;;5089162;27;45238;-73
2023/01/18 09:47:17;;;;;;;1.00;0.85;;;13.00;50.60;;;;;;5088351;27;46646;-73
2023/01/18 09:49:51;;;;;;;0.60;0.60;;;13.00;50.70;;;;;;5088762;27;45303;-73
2023/01/18 09:52:27;;;;;;;0.80;0.80;;;13.00;50.60;;;;;;5088715;27;45398;-73
2023/01/18 09:54:56;;;;;;;1.50;0.90;;;13.00;50.70;;;;;;5087781;27;45203;-74
2023/01/18 09:57:31;;;;;;;0.80;0.80;;;13.00;50.60;;;;;;5088351;27;46968;-73
2023/01/18 09:59:59;;;;;;;0.85;0.80;;;13.00;50.60;;;;;;5088173;27;45169;-74
2023/01/18 10:02:31;;;;;;;0.80;0.80;;;13.00;50.60;;;;;;5088621;27;45299;-73
2023/01/18 10:05:01;;;;;;;0.80;0.80;;;13.00;50.60;;;;;;5088778;27;45458;-73
2023/01/18 10:07:29;;;;;;;1.00;0.90;;;13.00;50.60;;;;;;5088153;27;45499;-73
2023/01/18 10:09:56;;;;;;;1.58;1.00;;;13.00;50.60;;;;;;5088079;27;45185;-73
2023/01/18 10:12:25;;;;;;;0.70;0.65;;;13.00;50.60;;;;;;5088370;27;45266;-73
2023/01/18 10:14:54;;;;;;;0.80;0.80;;;13.00;50.50;;;;;;5088331;27;45324;-73
2023/01/18 10:17:22;;;;;;;0.80;0.80;;;13.00;50.50;;;;;;5087841;27;46386;-74
2023/01/18 10:19:49;;;;;;;0.75;0.75;;;13.00;50.50;;;;;;5088356;27;45422;-73
2023/01/18 10:22:20;;;;;;;0.82;0.82;;;13.00;50.50;;;;;;5088271;27;45314;-73
2023/01/18 10:24:51;;;;;;;1.27;0.90;;;13.00;50.50;;;;;;5088020;27;45294;-73
2023/01/18 10:27:35;;;;;;;1.00;0.90;;;13.00;51.10;;;;;;5087944;27;45289;-73
2023/01/18 10:30:31;;;;;;;1.08;0.90;;;13.00;50.40;;;;;;5087723;27;45310;-73
2023/01/18 10:32:59;;;;;;;1.10;1.05;;;13.00;50.40;;;;;;5090057;27;45389;-74
2023/01/18 10:35:29;;;;;;;0.73;0.73;;;13.00;50.40;;;;;;5088096;27;45185;-74
2023/01/18 10:38:00;;;;;;;0.65;0.65;;;13.00;50.40;;;;;;5087755;27;47555;-74
2023/01/18 10:40:27;;;;;;;1.25;0.68;;;13.00;50.40;;;;;;5087701;27;45297;-74
2023/01/18 10:42:55;;;;;;;0.80;0.80;;;13.00;50.30;;;;;;5087548;27;45281;-73
2023/01/18 10:45:24;;;;;;;1.40;1.00;;;13.10;50.30;;;;;;5087835;27;45646;-73
2023/01/18 10:47:52;;;;;;;1.00;0.90;;;13.00;50.30;;;;;;5082718;27;45889;-74
2023/01/18 10:50:21;;;;;;;0.90;0.80;;;13.10;50.40;;;;;;5086719;28;45258;-72
2023/01/18 10:52:48;;;;;;;1.20;1.00;;;13.10;50.90;;;;;;5087343;28;45230;-72
2023/01/18 10:55:17;;;;;;;0.80;0.80;;;13.10;50.30;;;;;;5087470;28;45181;-73
2023/01/18 10:57:46;;;;;;;0.75;0.75;;;13.10;50.30;;;;;;5084616;28;46171;-73
2023/01/18 11:00:21;;;;;;;0.67;0.67;;;13.10;50.20;;;;;;5086837;28;45438;-73
2023/01/18 11:02:48;;;;;;;0.82;0.82;;;13.10;50.20;;;;;;5087337;28;45311;-72
2023/01/18 11:05:22;;;;;;;1.55;1.17;;;13.10;50.20;;;;;;5086810;27;45198;-76
2023/01/18 11:07:54;;;;;;;0.98;0.80;;;13.10;50.20;;;;;;5086339;28;45466;-72
2023/01/18 11:10:26;;;;;;;1.48;1.08;;;13.10;50.30;;;;;;5087006;27;45287;-72
2023/01/18 11:12:53;;;;;;;0.80;0.80;;;13.10;50.30;;;;;;5086598;28;45254;-72
2023/01/18 11:15:26;;;;;;;0.80;0.80;;;13.10;50.30;;;;;;5086590;27;45552;-72
2023/01/18 11:18:00;;;;;;;1.67;0.88;;;13.10;50.40;;;;;;5086026;27;46338;-71
2023/01/18 11:20:32;;;;;;;0.93;0.93;;;13.00;50.30;;;;;;5085621;28;45231;-71
2023/01/18 11:23:00;;;;;;;1.20;0.90;;;13.00;50.30;;;;;;5085806;28;45241;-72
2023/01/18 11:25:36;;;;;;;0.88;0.80;;;13.00;50.40;;;;;;5086508;28;45183;-72
2023/01/18 11:28:03;;;;;;;0.80;0.80;;;13.00;50.30;;;;;;5086129;28;45446;-72
2023/01/18 11:30:30;;;;;;;1.00;0.90;;;13.00;50.30;;;;;;5086059;28;45292;-72
2023/01/18 11:32:59;;;;;;;0.70;0.70;;;13.10;50.30;;;;;;5086290;28;45220;-72
2023/01/18 11:35:29;;;;;;;0.82;0.82;;;13.00;50.30;;;;;;5086293;28;45193;-72
2023/01/18 11:37:58;;;;;;;1.20;1.10;;;13.00;50.30;;;;;;5085757;28;46735;-72
2023/01/18 11:40:28;;;;;;;1.65;0.85;;;13.00;50.20;;;;;;5085981;27;45201;-71
2023/01/18 11:42:58;;;;;;;0.82;0.80;;;13.00;50.20;;;;;;5085797;27;45306;-71
2023/01/18 11:45:26;;;;;;;0.70;0.70;;;13.00;50.30;;;;;;5085958;28;45167;-71
2023/01/18 11:48:00;;;;;;;0.70;0.70;;;13.00;50.30;;;;;;5085752;28;45270;-71
2023/01/18 11:50:30;;;;;;;1.13;1.00;;;13.00;50.20;;;;;;5085973;28;45649;-72
2023/01/18 11:53:00;;;;;;;2.38;0.98;;;13.00;50.20;;;;;;5085940;27;45306;-72
2023/01/18 11:55:31;;;;;;;1.60;0.80;;;13.00;50.20;;;;;;5086095;28;45228;-72
2023/01/18 11:57:58;;;;;;;0.82;0.82;;;13.10;50.20;;;;;;5085193;28;46950;-71
2023/01/18 12:00:27;;;;;;;0.80;0.80;;;13.10;50.20;;;;;;5085978;28;45318;-73
2023/01/18 12:03:01;;;;;;;0.80;0.80;;;13.00;50.20;;;;;;5085139;27;44689;-72
2023/01/18 12:05:44;;;;;;;0.75;0.70;;;13.00;50.90;;;;;;5084864;27;45462;-72
2023/01/18 12:08:48;;;;;;;1.08;0.98;;;13.00;50.30;;;;;;5086614;27;46718;-73
2023/01/18 12:11:28;;;;;;;0.52;0.52;;;13.00;50.20;;;;;;5081740;28;45328;-72
2023/01/18 12:13:59;;;;;;;0.65;0.63;;;13.00;50.30;;;;;;5070794;27;45568;-72
2023/01/18 12:16:33;;;;;;;1.13;0.70;;;13.00;50.20;;;;;;5087983;27;45458;-72
2023/01/18 12:19:24;;;;;;;0.55;0.55;;;13.10;50.20;;;;;;5085829;28;47329;-73
2023/01/18 12:22:04;;;;;;;0.77;0.68;;;13.00;50.20;;;;;;5086837;27;45395;-72
2023/01/18 12:24:42;;;;;;;1.40;1.00;;;13.10;50.20;;;;;;5086166;27;45144;-74
2023/01/18 12:27:15;;;;;;;1.45;0.85;;;13.10;50.10;;;;;;5091764;27;45529;-74
2023/01/18 12:30:03;;;;;;;1.20;0.90;;;13.10;50.60;;;;;;5099923;27;45975;-73
2023/01/18 12:32:37;;;;;;;1.70;0.90;;;13.20;50.00;;;;;;5085262;27;45810;-74
2023/01/18 12:35:27;;;;;;;0.63;0.63;;;13.30;49.70;;;;;;5087701;27;45269;-74
2023/01/18 12:37:58;;;;;;;1.60;1.00;;;13.40;49.50;;;;;;5098370;27;45315;-74
2023/01/18 12:40:36;;;;;;;1.10;0.93;;;13.50;49.30;;;;;;5108059;27;46401;-74
2023/01/18 12:43:08;;;;;;;2.25;1.00;;;13.50;49.80;;;;;;5105371;27;45276;-74
2023/01/18 12:45:36;;;;;;;1.40;0.90;;;13.50;49.00;;;;;;5087171;27;45401;-74
2023/01/18 12:48:09;;;;;;;0.70;0.70;;;13.60;49.00;;;;;;5087765;27;45472;-74
2023/01/18 12:50:36;;;;;;;1.05;0.98;;;13.60;48.90;;;;;;5088273;27;45501;-74
2023/01/18 12:53:05;;;;;;;1.15;1.10;;;13.60;48.90;;;;;;5088252;27;45398;-74
2023/01/18 12:55:33;;;;;;;1.35;1.00;;;13.60;48.80;;;;;;5083694;27;45119;-73
2023/01/18 12:58:00;;;;;;;0.90;0.90;;;13.70;48.80;;;;;;5090857;27;45556;-73
2023/01/18 13:00:31;;;;;;;1.17;1.08;;;13.70;48.70;;;;;;5087104;27;46528;-73
2023/01/18 13:02:58;;;;;;;1.65;0.95;;;13.70;48.70;;;;;;5091127;27;45337;-74
2023/01/18 13:05:33;;;;;;;1.20;1.10;;;13.70;48.70;;;;;;5088170;27;45442;-74
2023/01/18 13:08:05;;;;;;;1.02;0.90;;;13.70;48.70;;;;;;5087954;27;45290;-74
2023/01/18 13:10:32;;;;;;;1.70;1.00;;;13.70;48.70;;;;;;5085176;27;46372;-74
2023/01/18 13:12:58;;;;;;;0.85;0.80;;;13.70;48.70;;;;;;5087899;27;45619;-74
2023/01/18 13:15:32;;;;;;;1.20;1.10;;;13.70;48.70;;;;;;5085156;27;45443;-74
2023/01/18 13:18:04;;;;;;;1.55;1.20;;;13.70;48.70;;;;;;5070667;27;45411;-73
2023/01/18 13:20:38;;;;;;;1.23;1.05;;;13.70;48.70;;;;;;5090003;27;45726;-74
2023/01/18 13:23:10;;;;;;;0.90;0.90;;;13.70;48.70;;;;;;5086812;27;45323;-74
2023/01/18 13:25:43;;;;;;;0.90;0.90;;;13.70;48.70;;;;;;5088432;27;45398;-74
2023/01/18 13:28:17;;;;;;;1.20;0.95;;;13.70;48.70;;;;;;5084830;27;45585;-74
2023/01/18 13:30:53;;;;;;;0.95;0.88;;;13.60;48.80;;;;;;5082990;27;46660;-74